createdAt,value
2023-03-31T00:02:15.672Z,11.50
2023-03-31T00:04:46.579Z,11.40
2023-03-31T00:07:14.907Z,11.50
2023-03-31T00:09:45.772Z,11.50
2023-03-31T00:12:16.516Z,11.50
2023-03-31T00:14:43.927Z,11.40
2023-03-31T00:17:11.284Z,11.40
2023-03-31T00:19:39.974Z,11.40
2023-03-31T00:22:06.508Z,11.30
2023-03-31T00:24:33.910Z,11.30
2023-03-31T00:27:04.459Z,11.40
2023-03-31T00:29:33.667Z,11.40
2023-03-31T00:32:00.292Z,11.40
2023-03-31T00:34:27.384Z,11.50
2023-03-31T00:36:56.201Z,11.40
2023-03-31T00:39:24.240Z,11.50
2023-03-31T00:41:51.322Z,11.60
2023-03-31T00:44:24.353Z,11.70
2023-03-31T00:46:54.098Z,11.80
2023-03-31T00:49:57.558Z,11.80
2023-03-31T00:52:31.288Z,11.80
2023-03-31T00:55:08.486Z,11.90
2023-03-31T00:57:39.374Z,12.00
2023-03-31T01:00:18.471Z,12.00
2023-03-31T01:02:55.714Z,11.90
2023-03-31T01:05:36.546Z,12.00
2023-03-31T01:08:05.730Z,12.00
2023-03-31T01:10:41.482Z,12.00
2023-03-31T01:13:10.571Z,12.10
2023-03-31T01:15:38.119Z,12.10
2023-03-31T01:18:06.851Z,12.10
2023-03-31T01:20:39.344Z,12.00
2023-03-31T01:23:43.528Z,11.80
2023-03-31T01:26:39.134Z,11.80
2023-03-31T01:29:27.555Z,11.70
2023-03-31T01:32:14.373Z,11.70
2023-03-31T01:34:52.827Z,11.60
2023-03-31T01:37:37.694Z,11.60
2023-03-31T01:40:31.788Z,11.50
2023-03-31T01:43:15.185Z,11.50
2023-03-31T01:46:23.097Z,11.40
2023-03-31T01:49:14.262Z,11.40
2023-03-31T01:51:50.098Z,11.40
2023-03-31T01:54:22.399Z,11.30
2023-03-31T01:57:01.501Z,11.30
2023-03-31T01:59:40.668Z,11.20
2023-03-31T02:02:16.215Z,11.20
2023-03-31T02:04:53.153Z,11.20
2023-03-31T02:07:30.743Z,11.20
2023-03-31T02:10:01.564Z,11.20
2023-03-31T02:12:31.402Z,11.20
2023-03-31T02:14:59.687Z,11.10
2023-03-31T02:17:32.529Z,11.10
2023-03-31T02:20:07.315Z,11.10
2023-03-31T02:22:38.176Z,11.10
2023-03-31T02:25:07.961Z,11.10
2023-03-31T02:27:39.808Z,11.10
2023-03-31T02:30:07.784Z,11.00
2023-03-31T02:32:36.736Z,11.00
2023-03-31T02:35:04.497Z,11.10
2023-03-31T02:37:31.692Z,11.00
2023-03-31T02:40:02.313Z,11.00
2023-03-31T02:42:29.117Z,11.00
2023-03-31T02:45:03.079Z,10.90
2023-03-31T02:47:29.801Z,10.90
2023-03-31T02:49:59.721Z,11.00
2023-03-31T02:52:55.213Z,10.90
2023-03-31T02:55:51.400Z,10.80
2023-03-31T02:58:40.768Z,10.70
2023-03-31T03:01:37.556Z,10.80
2023-03-31T03:04:19.086Z,10.80
2023-03-31T03:07:14.739Z,10.70
2023-03-31T03:09:50.147Z,10.60
2023-03-31T03:12:22.389Z,10.60
2023-03-31T03:15:08.325Z,10.70
2023-03-31T03:17:42.944Z,10.70
2023-03-31T03:20:10.824Z,10.60
2023-03-31T03:22:38.918Z,10.60
2023-03-31T03:25:07.195Z,10.50
2023-03-31T03:27:33.734Z,10.50
2023-03-31T03:30:02.612Z,10.40
2023-03-31T03:32:29.538Z,10.50
2023-03-31T03:34:56.123Z,10.50
2023-03-31T03:37:22.696Z,10.50
2023-03-31T03:39:49.215Z,10.60
2023-03-31T03:42:16.899Z,10.70
2023-03-31T03:44:43.434Z,10.60
2023-03-31T03:47:10.079Z,10.70
2023-03-31T03:49:36.616Z,10.80
2023-03-31T03:52:03.509Z,10.80
2023-03-31T03:54:30.256Z,10.90
2023-03-31T03:56:56.807Z,10.60
2023-03-31T03:59:23.523Z,10.50
2023-03-31T04:01:50.083Z,10.60
2023-03-31T04:04:16.602Z,10.60
2023-03-31T04:06:43.199Z,10.50
2023-03-31T04:09:09.741Z,10.60
2023-03-31T04:11:36.337Z,10.60
2023-03-31T04:14:02.921Z,10.60
2023-03-31T04:16:30.677Z,10.60
2023-03-31T04:18:58.939Z,10.40
2023-03-31T04:21:25.870Z,10.40
2023-03-31T04:24:01.797Z,10.50
2023-03-31T04:26:42.785Z,10.50
2023-03-31T04:29:16.102Z,10.50
2023-03-31T04:31:43.873Z,10.50
2023-03-31T04:34:15.623Z,10.60
2023-03-31T04:36:47.602Z,10.60
2023-03-31T04:39:16.843Z,10.60
2023-03-31T04:41:43.731Z,10.80
2023-03-31T04:44:10.716Z,10.70
2023-03-31T04:46:37.390Z,10.80
2023-03-31T04:49:05.548Z,10.90
2023-03-31T04:51:32.101Z,10.90
2023-03-31T04:53:58.620Z,10.90
2023-03-31T04:56:25.672Z,10.90
2023-03-31T04:58:52.271Z,10.90
2023-03-31T05:01:19.099Z,10.80
2023-03-31T05:03:48.159Z,10.60
2023-03-31T05:06:16.401Z,10.50
2023-03-31T05:08:43.937Z,10.40
2023-03-31T05:11:11.037Z,10.40
2023-03-31T05:13:37.900Z,10.50
2023-03-31T05:16:10.693Z,10.70
2023-03-31T05:18:37.310Z,10.90
2023-03-31T05:21:19.438Z,10.90
2023-03-31T05:23:46.192Z,10.90
2023-03-31T05:26:13.696Z,10.90
2023-03-31T05:28:41.394Z,10.90
2023-03-31T05:31:09.385Z,10.90
2023-03-31T05:33:40.135Z,10.90
2023-03-31T05:36:09.244Z,10.80
2023-03-31T05:38:36.349Z,10.90
2023-03-31T05:41:02.965Z,11.00
2023-03-31T05:43:30.276Z,10.80
2023-03-31T05:45:56.790Z,11.00
2023-03-31T05:48:23.421Z,11.00
2023-03-31T05:50:50.046Z,11.10
2023-03-31T05:53:16.658Z,11.10
2023-03-31T05:55:43.278Z,11.10
2023-03-31T05:58:09.776Z,11.00
2023-03-31T06:00:36.412Z,10.90
2023-03-31T06:03:03.202Z,10.80
2023-03-31T06:05:31.118Z,10.80
2023-03-31T06:07:58.005Z,10.80
2023-03-31T06:10:24.540Z,10.80
2023-03-31T06:12:51.050Z,10.80
2023-03-31T06:15:18.075Z,10.90
2023-03-31T06:17:44.795Z,10.90
2023-03-31T06:20:26.593Z,11.00
2023-03-31T06:22:54.835Z,11.00
2023-03-31T06:25:21.578Z,11.10
2023-03-31T06:27:48.197Z,11.20
2023-03-31T06:30:15.068Z,11.30
2023-03-31T06:32:41.669Z,11.40
2023-03-31T06:35:08.683Z,11.60
2023-03-31T06:37:35.769Z,11.70
2023-03-31T06:40:02.751Z,11.60
2023-03-31T06:42:29.557Z,11.70
2023-03-31T06:44:56.089Z,11.80
2023-03-31T06:47:22.700Z,11.90
2023-03-31T06:49:49.611Z,11.90
2023-03-31T06:52:16.396Z,12.00
2023-03-31T06:54:43.167Z,12.10
2023-03-31T06:57:09.837Z,12.20
2023-03-31T06:59:36.606Z,12.40
2023-03-31T07:02:03.444Z,12.50
2023-03-31T07:04:30.108Z,12.50
2023-03-31T07:06:58.649Z,12.70
2023-03-31T07:09:25.168Z,12.60
2023-03-31T07:11:51.714Z,12.80
2023-03-31T07:14:18.298Z,12.50
2023-03-31T07:16:44.850Z,12.50
2023-03-31T07:19:11.488Z,12.50
2023-03-31T07:21:38.063Z,12.40
2023-03-31T07:24:04.891Z,12.50
2023-03-31T07:26:31.433Z,12.50
2023-03-31T07:28:58.022Z,12.50
2023-03-31T07:31:24.841Z,12.60
2023-03-31T07:33:51.397Z,12.30
2023-03-31T07:36:18.440Z,12.20
2023-03-31T07:38:48.460Z,12.20
2023-03-31T07:41:19.063Z,12.30
2023-03-31T07:43:46.387Z,12.40
2023-03-31T07:46:22.540Z,12.60
2023-03-31T07:48:50.225Z,12.60
2023-03-31T07:51:19.610Z,12.80
2023-03-31T07:53:47.160Z,13.10
2023-03-31T07:56:13.690Z,13.10
2023-03-31T07:58:40.374Z,13.20
2023-03-31T08:01:08.239Z,13.10
2023-03-31T08:03:35.156Z,13.20
2023-03-31T08:06:01.708Z,13.10
2023-03-31T08:08:28.225Z,13.40
2023-03-31T08:10:54.731Z,13.70
2023-03-31T08:13:21.865Z,13.90
2023-03-31T08:15:48.463Z,14.40
2023-03-31T08:18:15.809Z,14.60
2023-03-31T08:20:42.383Z,14.70
2023-03-31T08:23:11.338Z,14.60
2023-03-31T08:25:38.522Z,14.50
2023-03-31T08:28:06.715Z,14.40
2023-03-31T08:30:33.376Z,14.30
2023-03-31T08:32:59.927Z,13.90
2023-03-31T08:35:26.529Z,13.90
2023-03-31T08:37:53.059Z,13.90
2023-03-31T08:40:23.678Z,14.00
2023-03-31T08:42:55.421Z,14.20
2023-03-31T08:45:33.183Z,14.20
2023-03-31T08:48:19.678Z,14.30
2023-03-31T08:50:53.436Z,14.30
2023-03-31T08:53:32.942Z,14.30
2023-03-31T08:55:59.654Z,14.40
2023-03-31T08:58:45.845Z,14.50
2023-03-31T09:01:32.527Z,14.30
2023-03-31T09:04:22.917Z,14.30
2023-03-31T09:06:58.784Z,14.20
2023-03-31T09:09:46.991Z,13.90
2023-03-31T09:12:52.424Z,13.40
2023-03-31T09:15:40.317Z,13.00
2023-03-31T09:18:25.260Z,12.60
2023-03-31T09:20:54.734Z,12.80
2023-03-31T09:23:38.076Z,13.00
2023-03-31T09:26:06.314Z,13.20
2023-03-31T09:28:40.173Z,13.40
2023-03-31T09:31:21.678Z,13.40
2023-03-31T09:33:51.354Z,13.40
2023-03-31T09:36:22.278Z,13.50
2023-03-31T09:38:49.881Z,13.60
2023-03-31T09:41:18.647Z,13.80
2023-03-31T09:43:46.312Z,13.90
2023-03-31T09:46:19.689Z,14.10
2023-03-31T09:48:54.990Z,14.30
2023-03-31T09:51:30.350Z,14.40
2023-03-31T09:54:07.642Z,14.70
2023-03-31T09:56:43.538Z,15.10
2023-03-31T09:59:18.994Z,14.70
2023-03-31T10:01:47.718Z,14.90
2023-03-31T10:04:21.110Z,15.20
2023-03-31T10:06:48.897Z,15.10
2023-03-31T10:09:16.847Z,14.90
2023-03-31T10:12:02.375Z,14.40
2023-03-31T10:14:49.315Z,13.40
2023-03-31T10:17:24.096Z,11.80
2023-03-31T10:20:12.751Z,11.70
2023-03-31T10:22:44.733Z,11.90
2023-03-31T10:25:32.567Z,12.10
2023-03-31T10:28:02.153Z,12.30
2023-03-31T10:30:35.334Z,12.50
2023-03-31T10:33:19.182Z,12.60
2023-03-31T10:35:51.057Z,12.70
2023-03-31T10:38:50.154Z,12.50
2023-03-31T10:41:23.627Z,12.40
2023-03-31T10:43:55.266Z,12.20
2023-03-31T10:46:39.231Z,12.10
2023-03-31T10:49:21.065Z,12.10
2023-03-31T10:51:54.822Z,12.20
2023-03-31T10:54:21.639Z,12.20
2023-03-31T10:57:05.497Z,12.30
2023-03-31T10:59:43.685Z,12.60
2023-03-31T11:02:41.177Z,13.00
2023-03-31T11:05:22.314Z,13.30
2023-03-31T11:08:01.949Z,13.50
2023-03-31T11:10:35.038Z,13.70
2023-03-31T11:13:40.299Z,13.90
2023-03-31T11:16:20.659Z,14.10
2023-03-31T11:19:28.928Z,14.40
2023-03-31T11:22:21.133Z,14.70
2023-03-31T11:25:24.613Z,15.00
2023-03-31T11:28:09.687Z,15.00
2023-03-31T11:31:12.328Z,14.90
2023-03-31T11:34:08.700Z,14.60
2023-03-31T11:36:50.538Z,14.30
2023-03-31T11:39:24.930Z,13.80
2023-03-31T11:42:05.578Z,13.50
2023-03-31T11:44:41.180Z,13.60
2023-03-31T11:47:19.066Z,13.50
2023-03-31T11:50:09.374Z,13.60
2023-03-31T11:52:41.639Z,13.70
2023-03-31T11:55:16.539Z,13.90
2023-03-31T11:57:48.578Z,14.40
2023-03-31T12:00:22.826Z,14.70
2023-03-31T12:03:31.675Z,14.80
2023-03-31T12:06:04.279Z,14.90
2023-03-31T12:08:38.037Z,15.00
2023-03-31T12:11:14.983Z,15.10
2023-03-31T12:13:47.793Z,14.90
2023-03-31T12:16:22.863Z,14.80
2023-03-31T12:19:10.800Z,14.80
2023-03-31T12:21:41.179Z,14.60
2023-03-31T12:24:12.024Z,14.50
2023-03-31T12:26:50.468Z,14.30
2023-03-31T12:29:35.549Z,13.90
2023-03-31T12:32:11.123Z,14.20
2023-03-31T12:34:46.053Z,14.40
2023-03-31T12:37:47.692Z,15.10
2023-03-31T12:40:30.893Z,15.60
2023-03-31T12:43:16.412Z,15.70
2023-03-31T12:46:18.525Z,16.30
2023-03-31T12:48:57.265Z,15.90
2023-03-31T12:51:29.553Z,16.00
2023-03-31T12:54:13.943Z,16.10
2023-03-31T12:57:08.608Z,15.70
2023-03-31T12:59:42.146Z,15.90
2023-03-31T13:02:17.453Z,15.90
2023-03-31T13:04:44.555Z,16.10
2023-03-31T13:07:41.326Z,15.90
2023-03-31T13:10:14.323Z,15.60
2023-03-31T13:12:41.358Z,15.20
2023-03-31T13:15:14.470Z,15.20
2023-03-31T13:17:42.412Z,14.90
2023-03-31T13:20:40.802Z,14.80
2023-03-31T13:23:20.089Z,14.70
2023-03-31T13:25:49.763Z,14.90
2023-03-31T13:28:22.522Z,14.80
2023-03-31T13:30:53.793Z,14.50
2023-03-31T13:33:30.527Z,15.00
2023-03-31T13:36:17.917Z,15.30
2023-03-31T13:39:16.607Z,15.20
2023-03-31T13:41:56.218Z,15.60
2023-03-31T13:44:44.498Z,15.10
2023-03-31T13:47:29.820Z,14.90
2023-03-31T13:50:18.091Z,15.30
2023-03-31T13:53:09.687Z,15.40
2023-03-31T13:55:53.058Z,15.10
2023-03-31T13:58:47.507Z,14.90
2023-03-31T14:01:35.813Z,14.90
2023-03-31T14:04:38.011Z,14.90
2023-03-31T14:07:12.385Z,14.80
2023-03-31T14:09:49.348Z,14.20
2023-03-31T14:12:25.181Z,13.60
2023-03-31T14:14:54.866Z,12.80
2023-03-31T14:17:26.144Z,12.40
2023-03-31T14:20:20.919Z,12.00
2023-03-31T14:22:51.311Z,12.00
2023-03-31T14:25:33.085Z,11.90
2023-03-31T14:28:58.092Z,11.80
2023-03-31T14:31:35.300Z,11.70
2023-03-31T14:34:19.205Z,11.50
2023-03-31T14:37:06.079Z,11.40
2023-03-31T14:39:37.393Z,11.10
2023-03-31T14:42:13.695Z,10.80
2023-03-31T14:44:47.083Z,10.80
2023-03-31T14:47:29.047Z,10.90
2023-03-31T14:50:05.213Z,11.20
2023-03-31T14:52:33.843Z,11.50
2023-03-31T14:55:01.428Z,11.60
2023-03-31T14:57:34.813Z,11.60
2023-03-31T15:00:07.931Z,11.70
2023-03-31T15:02:37.637Z,11.80
2023-03-31T15:05:07.506Z,11.70
2023-03-31T15:07:36.136Z,11.80
2023-03-31T15:10:04.672Z,11.80
2023-03-31T15:12:31.437Z,11.70
2023-03-31T15:15:04.170Z,11.80
2023-03-31T15:17:36.157Z,11.80
2023-03-31T15:20:20.695Z,12.00
2023-03-31T15:22:47.212Z,12.00
2023-03-31T15:25:16.607Z,12.20
2023-03-31T15:27:52.686Z,12.40
2023-03-31T15:30:23.294Z,12.50
2023-03-31T15:32:50.169Z,12.50
2023-03-31T15:35:34.420Z,12.40
2023-03-31T15:38:05.057Z,12.60
2023-03-31T15:40:39.510Z,12.60
2023-03-31T15:43:24.311Z,12.60
2023-03-31T15:45:56.913Z,12.50
2023-03-31T15:48:34.200Z,12.40
2023-03-31T15:51:22.258Z,12.50
2023-03-31T15:53:53.776Z,12.40
2023-03-31T15:56:43.513Z,12.40
2023-03-31T15:59:34.459Z,12.20
2023-03-31T16:02:18.998Z,12.30
2023-03-31T16:04:50.380Z,12.40
2023-03-31T16:07:29.752Z,12.40
2023-03-31T16:10:19.203Z,12.40
2023-03-31T16:13:06.270Z,12.30
2023-03-31T16:15:48.075Z,12.30
2023-03-31T16:18:32.803Z,12.10
2023-03-31T16:21:03.300Z,12.00
2023-03-31T16:23:32.813Z,12.00
2023-03-31T16:26:00.913Z,11.80
2023-03-31T16:28:31.175Z,11.60
2023-03-31T16:31:01.931Z,11.50
2023-03-31T16:33:31.178Z,11.40
2023-03-31T16:35:58.756Z,11.30
2023-03-31T16:38:28.952Z,11.00
2023-03-31T16:40:57.643Z,10.90
2023-03-31T16:43:28.741Z,10.90
2023-03-31T16:45:57.907Z,10.80
2023-03-31T16:48:27.129Z,10.70
2023-03-31T16:50:55.907Z,10.60
2023-03-31T16:53:26.339Z,10.50
2023-03-31T16:55:53.281Z,10.40
2023-03-31T16:58:21.001Z,10.40
2023-03-31T17:00:47.784Z,10.40
2023-03-31T17:03:16.383Z,10.40
2023-03-31T17:05:45.359Z,10.30
2023-03-31T17:08:13.495Z,10.50
2023-03-31T17:10:40.794Z,10.60
2023-03-31T17:13:08.686Z,10.60
2023-03-31T17:15:39.687Z,10.80
2023-03-31T17:18:07.145Z,10.80
2023-03-31T17:20:34.390Z,11.00
2023-03-31T17:23:01.332Z,10.90
2023-03-31T17:25:28.007Z,10.90
2023-03-31T17:27:56.117Z,11.00
2023-03-31T17:30:23.258Z,10.90
2023-03-31T17:32:51.550Z,10.90
2023-03-31T17:35:21.474Z,10.90
2023-03-31T17:37:55.722Z,11.00
2023-03-31T17:40:26.803Z,11.00
2023-03-31T17:42:54.086Z,11.00
2023-03-31T17:45:20.647Z,10.90
2023-03-31T17:47:47.153Z,10.80
2023-03-31T17:50:13.767Z,10.80
2023-03-31T17:52:41.075Z,10.90
2023-03-31T17:55:08.102Z,10.90
2023-03-31T17:57:36.796Z,11.10
2023-03-31T18:00:05.815Z,11.00
2023-03-31T18:02:32.485Z,11.00
2023-03-31T18:04:59.071Z,11.10
2023-03-31T18:07:25.676Z,11.10
2023-03-31T18:09:52.363Z,11.00
2023-03-31T18:12:18.924Z,11.00
2023-03-31T18:14:46.006Z,11.10
2023-03-31T18:17:14.796Z,11.10
2023-03-31T18:19:42.223Z,11.00
2023-03-31T18:22:09.753Z,11.10
2023-03-31T18:24:38.210Z,11.10
2023-03-31T18:27:06.260Z,11.00
2023-03-31T18:29:33.352Z,11.00
2023-03-31T18:31:59.954Z,11.00
2023-03-31T18:34:27.085Z,10.90
2023-03-31T18:36:54.560Z,10.80
2023-03-31T18:39:21.235Z,10.70
2023-03-31T18:41:48.862Z,10.70
2023-03-31T18:44:18.634Z,10.70
2023-03-31T18:46:45.948Z,10.70
2023-03-31T18:49:14.445Z,10.70
2023-03-31T18:51:40.968Z,10.60
2023-03-31T18:54:07.723Z,10.70
2023-03-31T18:56:34.286Z,10.50
2023-03-31T18:59:03.827Z,10.50
2023-03-31T19:01:32.318Z,10.50
2023-03-31T19:03:58.873Z,10.40
2023-03-31T19:06:26.464Z,10.40
2023-03-31T19:08:55.244Z,10.40
2023-03-31T19:11:21.811Z,10.40
2023-03-31T19:13:48.321Z,10.40
2023-03-31T19:16:15.030Z,10.30
2023-03-31T19:18:43.660Z,10.30
2023-03-31T19:21:10.446Z,10.20
2023-03-31T19:23:37.245Z,10.20
2023-03-31T19:26:04.095Z,10.40
2023-03-31T19:28:31.376Z,10.50
2023-03-31T19:30:58.984Z,10.40
2023-03-31T19:33:26.651Z,10.30
2023-03-31T19:35:53.427Z,10.30
2023-03-31T19:38:21.788Z,10.30
2023-03-31T19:40:48.955Z,10.30
2023-03-31T19:43:19.993Z,10.30
2023-03-31T19:45:52.721Z,10.30
2023-03-31T19:48:19.981Z,10.30
2023-03-31T19:50:51.619Z,10.30
2023-03-31T19:53:19.047Z,10.30
2023-03-31T19:55:58.381Z,10.20
2023-03-31T19:58:26.082Z,10.10
2023-03-31T20:00:53.912Z,10.00
2023-03-31T20:03:21.964Z,9.90
2023-03-31T20:05:48.571Z,9.90
2023-03-31T20:08:15.632Z,9.90
2023-03-31T20:10:42.775Z,10.00
2023-03-31T20:13:10.389Z,10.00
2023-03-31T20:15:38.384Z,10.10
2023-03-31T20:18:06.257Z,10.10
2023-03-31T20:20:32.924Z,10.20
2023-03-31T20:22:59.739Z,10.20
2023-03-31T20:25:27.056Z,10.30
2023-03-31T20:27:53.606Z,10.30
2023-03-31T20:30:20.480Z,10.20
2023-03-31T20:32:47.328Z,10.20
2023-03-31T20:35:14.190Z,10.10
2023-03-31T20:37:40.733Z,10.10
2023-03-31T20:40:07.878Z,10.10
2023-03-31T20:42:35.095Z,10.10
2023-03-31T20:45:01.811Z,10.10
2023-03-31T20:47:28.440Z,10.10
2023-03-31T20:49:54.983Z,10.10
2023-03-31T20:52:21.680Z,10.00
2023-03-31T20:54:48.216Z,10.00
2023-03-31T20:57:14.797Z,10.00
2023-03-31T20:59:41.336Z,10.00
2023-03-31T21:02:10.899Z,10.00
2023-03-31T21:04:37.412Z,9.90
2023-03-31T21:07:03.928Z,10.00
2023-03-31T21:09:30.956Z,9.90
2023-03-31T21:11:57.739Z,9.90
2023-03-31T21:14:24.574Z,9.80
2023-03-31T21:16:51.150Z,10.10
2023-03-31T21:19:17.958Z,9.90
2023-03-31T21:21:44.557Z,9.80
2023-03-31T21:24:12.344Z,9.80
2023-03-31T21:26:40.020Z,9.80
2023-03-31T21:29:06.756Z,9.80
2023-03-31T21:31:33.330Z,9.80
2023-03-31T21:34:02.279Z,9.80
2023-03-31T21:36:29.188Z,9.80
2023-03-31T21:38:57.127Z,9.80
2023-03-31T21:41:27.032Z,9.70
2023-03-31T21:43:54.401Z,9.70
2023-03-31T21:46:27.309Z,9.70
2023-03-31T21:48:54.450Z,9.70
2023-03-31T21:51:22.355Z,9.70
2023-03-31T21:53:52.880Z,9.70
2023-03-31T21:56:19.555Z,9.80
2023-03-31T21:58:46.346Z,9.80
2023-03-31T22:01:13.405Z,9.80
2023-03-31T22:03:42.160Z,9.70
2023-03-31T22:06:09.372Z,9.70
2023-03-31T22:08:37.345Z,9.70
2023-03-31T22:11:05.820Z,10.00
2023-03-31T22:13:33.099Z,9.80
2023-03-31T22:16:01.661Z,9.70
2023-03-31T22:18:29.737Z,9.70
2023-03-31T22:20:57.138Z,9.70
2023-03-31T22:23:24.253Z,9.70
2023-03-31T22:25:50.834Z,9.70
2023-03-31T22:28:17.653Z,9.70
2023-03-31T22:30:44.571Z,9.70
2023-03-31T22:33:11.905Z,9.80
2023-03-31T22:35:38.663Z,9.80
2023-03-31T22:38:06.534Z,9.80
2023-03-31T22:40:34.860Z,9.90
2023-03-31T22:43:01.656Z,9.80
2023-03-31T22:45:28.375Z,9.80
2023-03-31T22:47:55.287Z,9.80
2023-03-31T22:50:22.194Z,9.80
2023-03-31T22:52:48.745Z,9.80
2023-03-31T22:55:15.791Z,9.80
2023-03-31T22:57:42.876Z,9.80
2023-03-31T23:00:10.402Z,9.90
2023-03-31T23:02:36.964Z,10.00
2023-03-31T23:05:04.162Z,9.90
2023-03-31T23:07:30.854Z,9.90
2023-03-31T23:09:57.380Z,10.00
2023-03-31T23:12:27.935Z,9.90
2023-03-31T23:14:54.665Z,9.80
2023-03-31T23:17:21.327Z,9.80
2023-03-31T23:19:48.046Z,9.80
2023-03-31T23:22:15.153Z,9.80
2023-03-31T23:24:41.906Z,9.70
2023-03-31T23:27:08.638Z,9.50
2023-03-31T23:29:36.210Z,9.60
2023-03-31T23:32:03.080Z,9.60
2023-03-31T23:34:29.616Z,9.60
2023-03-31T23:36:56.576Z,9.60
2023-03-31T23:39:23.263Z,9.50
2023-03-31T23:41:49.833Z,9.50
2023-03-31T23:44:16.392Z,9.60
2023-03-31T23:46:44.091Z,9.50
2023-03-31T23:49:11.596Z,9.50
2023-03-31T23:51:38.145Z,9.40
2023-03-31T23:54:04.706Z,9.50
2023-03-31T23:56:31.250Z,9.40
2023-03-31T23:58:57.830Z,9.50
